Latest Weather Observations for Mount Boyce

IDN60801

Issued at 1:34 am EDT Sunday 28 December 2014 (issued every 30 minutes, with the page automatically refreshed every 10 minutes)

About weather observations | Map of weather stations | Latest weather observations for NSW | Other Formats
Station Details ID: 063292 Name: MOUNT BOYCE AWS Lat: -33.62 Lon: 150.27 Height: 1080.0 m
Data from the previous 72 hours. | See also: Recent months at Mount Boyce
Date/Time
EDT
Temp
°C
App
Temp
°C
Dew
Point
Rel
Hum
%
Delta-T
°C
Wind Press
QNH
hPa
Press
MSL
hPa
Rain
since 9 am
mm
Dir
 
Spd
km/h
Gust
km/h
Spd
kts
Gust
kts
28/01:30am 11.0 10.1 10.7 98 0.2 ENE 6 9 3 5 - - 0.6
28/01:00am 11.1 10.0 10.8 98 0.2 ENE 7 13 4 7 - - 0.2
28/12:30am 11.1 10.2 10.8 98 0.2 ENE 6 11 3 6 - - 0.2
28/12:00am 10.9 9.7 10.4 97 0.3 ENE 7 13 4 7 - - 0.2
 
Date/Time
EDT
Temp
°C
App
Temp
°C
Dew
Point
Rel
Hum
%
Delta-T
°C
Wind Press
QNH
hPa
Press
MSL
hPa
Rain
since 9 am
mm
Dir
 
Spd
km/h
Gust
km/h
Spd
kts
Gust
kts
27/11:59pm 10.9 9.7 10.4 97 0.3 ENE 7 13 4 7 - - 0.2
27/11:30pm 10.9 9.7 10.4 97 0.3 ENE 7 13 4 7 - - 0.0
27/11:00pm 11.1 10.0 10.6 97 0.3 ENE 7 15 4 8 - - 0.0
27/10:30pm 11.2 9.7 10.7 97 0.3 ENE 9 15 5 8 - - 0.0
27/10:00pm 11.0 9.5 10.4 96 0.3 ENE 9 15 5 8 - - 0.0
27/09:30pm 10.8 8.8 10.0 95 0.4 ENE 11 20 6 11 - - 0.0
27/09:00pm 11.0 9.7 10.1 94 0.5 ENE 7 13 4 7 - - 0.0
27/08:30pm 10.8 9.4 9.6 92 0.6 ENE 7 13 4 7 - - 0.0
27/08:10pm 11.0 9.5 9.3 89 0.9 ENE 7 15 4 8 - - 0.0
27/08:00pm 11.1 9.6 9.2 88 1.0 ENE 7 13 4 7 - - 0.0
27/07:30pm 11.4 10.0 9.0 85 1.3 ENE 6 13 3 7 - - 0.0
27/07:00pm 11.8 9.8 8.6 81 1.7 ENE 9 17 5 9 - - 0.0
27/06:30pm 12.1 10.0 8.4 78 1.9 ENE 9 19 5 10 - - 0.0
27/06:11pm 12.8 10.7 8.3 74 2.4 ENE 9 15 5 8 - - 0.0
27/06:00pm 12.5 10.4 8.2 75 2.3 ENE 9 15 5 8 - - 0.0
27/05:30pm 12.5 10.4 8.2 75 2.3 ENE 9 17 5 9 - - 0.0
27/05:00pm 13.2 11.5 8.5 73 2.5 ENE 7 13 4 7 - - 0.0
27/04:30pm 12.8 11.0 7.9 72 2.6 ENE 7 17 4 9 - - 0.0
27/04:00pm 13.0 10.7 7.5 69 2.9 ENE 9 19 5 10 - - 0.0
27/03:30pm 13.5 10.8 7.5 67 3.1 ENE 11 20 6 11 - - 0.0
27/03:00pm 13.5 11.2 7.5 67 3.1 ENE 9 17 5 9 - - 0.0
27/02:30pm 13.7 10.8 6.3 61 3.8 ENE 11 20 6 11 - - 0.0
27/02:00pm 14.0 11.2 6.8 62 3.7 ENE 11 20 6 11 - - 0.0
27/01:30pm 13.5 10.8 5.7 59 3.9 ENE 9 15 5 8 - - 0.0
27/01:00pm 13.6 10.9 5.5 58 4.0 ENE 9 22 5 12 - - 0.0
27/12:30pm 13.9 10.6 4.8 54 4.5 ENE 11 20 6 11 - - 0.0
27/12:00pm 13.7 11.6 8.1 69 3.0 ENE 9 17 5 9 - - 0.0
27/11:47am 13.8 12.0 9.5 75 2.3 ENE 9 17 5 9 - - 0.0
27/11:30am 13.5 11.3 9.2 75 2.3 ENE 11 19 6 10 - - 0.0
27/11:00am 12.9 10.6 9.0 77 2.1 ENE 11 20 6 11 - - 0.0
27/10:30am 12.1 10.2 9.1 82 1.6 ENE 9 19 5 10 - - 0.0
27/10:00am 12.1 10.4 9.7 85 1.3 E 9 17 5 9 - - 0.0
27/09:30am 11.9 10.2 10.0 88 1.0 ENE 9 17 5 9 - - 0.0
27/09:02am 10.9 9.2 9.8 93 0.6 ENE 9 19 5 10 - - 0.0
27/09:00am 10.8 9.1 9.9 94 0.5 ENE 9 19 5 10 - - 1.4
27/08:42am 10.0 8.1 8.9 93 0.6 ENE 9 17 5 9 - - 1.4
27/08:30am 10.1 8.2 9.0 93 0.6 ENE 9 17 5 9 - - 1.4
27/08:00am 9.6 8.0 8.8 95 0.4 E 7 15 4 8 - - 1.4
27/07:30am 9.4 7.8 8.6 95 0.4 E 7 17 4 9 - - 1.4
27/07:03am 9.0 6.9 8.4 96 0.3 ENE 9 19 5 10 - - 1.4
27/07:00am 9.0 6.9 8.4 96 0.3 ENE 9 19 5 10 - - 1.4
27/06:46am 9.0 6.9 8.4 96 0.3 E 9 19 5 10 - - 1.4
27/06:37am 8.9 6.8 8.3 96 0.3 E 9 17 5 9 - - 1.4
27/06:30am 8.7 6.6 8.1 96 0.3 ENE 9 19 5 10 - - 1.4
27/06:27am 8.7 6.6 8.1 96 0.3 ENE 9 19 5 10 - - 1.4
27/06:00am 8.6 6.1 8.0 96 0.3 E 11 19 6 10 - - 1.4
27/05:58am 8.6 6.1 8.0 96 0.3 E 11 19 6 10 - - 1.4
27/05:30am 8.8 6.3 8.2 96 0.3 E 11 20 6 11 - - 1.4
27/05:00am 8.9 6.8 8.3 96 0.3 E 9 24 5 13 - - 1.4
27/04:54am 8.9 7.2 8.3 96 0.3 E 7 22 4 12 - - 1.4
27/04:44am 9.0 6.9 8.4 96 0.3 E 9 24 5 13 - - 1.4
27/04:30am 9.0 6.9 8.4 96 0.3 ENE 9 20 5 11 - - 1.4
27/04:15am 9.0 6.5 8.4 96 0.3 E 11 22 6 12 - - 1.4
27/04:00am 9.0 6.5 8.4 96 0.3 E 11 24 6 13 - - 1.4
27/03:30am 9.2 7.2 8.6 96 0.3 E 9 20 5 11 - - 1.4
27/03:00am 9.1 6.3 8.6 97 0.3 E 13 24 7 13 - - 1.4
27/02:37am 9.2 6.8 8.7 97 0.3 ENE 11 30 6 16 - - 1.4
27/02:30am 9.1 6.3 8.6 97 0.3 ENE 13 30 7 16 - - 1.4
27/02:00am 9.2 7.2 8.7 97 0.3 ENE 9 22 5 12 - - 1.4
27/01:32am 9.2 7.2 8.7 97 0.3 ENE 9 19 5 10 - - 1.4
27/01:30am 9.1 7.1 8.6 97 0.3 ENE 9 19 5 10 - - 1.4
27/01:04am 9.0 6.2 8.5 97 0.3 ENE 13 24 7 13 - - 1.2
27/01:00am 9.2 6.4 8.7 97 0.3 ENE 13 28 7 15 - - 1.2
27/12:30am 9.3 6.2 8.8 97 0.3 ENE 15 24 8 13 - - 1.2
27/12:00am 9.3 6.2 8.8 97 0.3 E 15 33 8 18 - - 1.2
 
Date/Time
EDT
Temp
°C
App
Temp
°C
Dew
Point
Rel
Hum
%
Delta-T
°C
Wind Press
QNH
hPa
Press
MSL
hPa
Rain
since 9 am
mm
Dir
 
Spd
km/h
Gust
km/h
Spd
kts
Gust
kts
26/11:32pm 9.4 6.3 8.9 97 0.3 E 15 26 8 14 - - 1.2
26/11:30pm 9.4 6.3 8.9 97 0.3 E 15 26 8 14 - - 1.2
26/11:00pm 9.9 6.9 9.4 97 0.3 E 15 24 8 13 - - 0.8
26/10:30pm 9.9 7.3 9.4 97 0.3 ENE 13 24 7 13 - - 0.6
26/10:00pm 10.1 6.8 9.5 96 0.3 E 17 33 9 18 - - 0.4
26/09:30pm 10.3 7.4 9.7 96 0.3 ENE 15 30 8 16 - - 0.2
26/09:18pm 10.5 7.2 9.7 95 0.4 ENE 17 30 9 16 - - 0.2
26/09:00pm 11.2 8.9 10.4 95 0.4 ENE 13 30 7 16 - - 0.0
26/08:30pm 11.6 9.0 10.7 94 0.5 ENE 15 28 8 15 - - 0.0
26/08:00pm 11.9 9.2 10.3 90 0.9 ENE 15 24 8 13 - - 0.0
26/07:30pm 12.9 9.9 10.8 87 1.2 ENE 17 30 9 16 - - 0.0
26/07:00pm 14.9 12.6 11.7 81 1.8 ENE 15 28 8 15 - - 0.0
26/06:45pm 16.2 14.1 12.4 78 2.2 ENE 15 24 8 13 - - 0.0
26/06:30pm 17.1 15.2 11.8 71 3.1 ENE 13 24 7 13 - - 0.0
26/06:17pm 18.0 16.0 12.7 71 3.1 ENE 15 24 8 13 - - 0.0
26/06:00pm 19.6 18.5 13.1 66 3.9 ENE 11 20 6 11 - - 0.0
26/05:30pm 22.4 19.0 5.8 34 8.8 SW 13 20 7 11 - - 0.0
26/05:00pm 22.6 19.2 4.2 30 9.5 W 11 20 6 11 - - 0.0
26/04:30pm 22.4 17.8 5.4 33 9.0 W 19 28 10 15 - - 0.0
26/04:00pm 22.6 18.3 6.8 36 8.6 WSW 19 30 10 16 - - 0.0
26/03:30pm 22.2 18.2 6.8 37 8.3 W 17 28 9 15 - - 0.0
26/03:00pm 21.9 16.8 7.7 40 7.8 WSW 24 37 13 20 - - 0.0
26/02:30pm 21.5 16.3 7.3 40 7.7 WSW 24 37 13 20 - - 0.0
26/02:00pm 21.3 16.2 7.5 41 7.5 WSW 24 35 13 19 - - 0.0
26/01:33pm 20.4 14.1 5.6 38 7.7 WSW 28 46 15 25 - - 0.0
26/01:30pm 20.9 15.2 6.8 40 7.6 WSW 26 41 14 22 - - 0.0
26/01:02pm 20.8 15.0 7.8 43 7.1 WSW 28 46 15 25 - - 0.0
26/01:00pm 20.7 14.5 7.7 43 7.1 WSW 30 46 16 25 - - 0.0
26/12:34pm 20.0 13.1 6.4 41 7.2 WSW 32 50 17 27 - - 0.0
26/12:30pm 19.9 12.8 6.3 41 7.2 WSW 33 50 18 27 - - 0.0
26/12:00pm 19.9 13.0 7.3 44 6.8 WSW 33 56 18 30 - - 0.0
26/11:31am 19.2 12.7 6.3 43 6.8 WSW 30 48 16 26 - - 0.0
26/11:30am 19.2 13.1 6.7 44 6.6 WSW 28 43 15 23 - - 0.0
26/11:00am 18.5 12.0 6.7 46 6.2 WSW 30 41 16 22 - - 0.0
26/10:30am 18.2 13.1 9.3 56 4.9 W 26 37 14 20 - - 0.0
26/10:00am 17.6 13.3 9.2 58 4.6 WSW 22 32 12 17 - - 0.0
26/09:30am 16.7 11.8 10.1 65 3.7 WSW 26 37 14 20 - - 0.0
26/09:00am 15.9 10.4 10.7 71 2.9 WSW 30 41 16 22 - - 16.6
26/08:45am 15.5 10.7 11.5 77 2.3 WSW 28 46 15 25 - - 16.6
26/08:30am 15.2 9.6 11.4 78 2.2 WSW 32 48 17 26 - - 16.6
26/08:23am 15.1 9.9 11.7 80 1.9 WSW 30 48 16 26 - - 16.6
26/08:00am 14.8 10.0 11.8 82 1.7 WSW 28 41 15 22 - - 16.4
26/07:30am 14.5 11.0 13.4 93 0.6 WSW 24 39 13 21 - - 16.4
26/07:00am 13.9 11.4 13.6 98 0.2 WSW 19 30 10 16 - - 16.4
26/06:32am 14.0 10.6 13.8 99 0.1 WSW 24 35 13 19 - - 16.4
26/06:30am 14.0 10.6 13.8 99 0.1 WSW 24 35 13 19 - - 16.4
26/06:22am 14.1 10.8 13.9 99 0.1 WSW 24 37 13 20 - - 16.4
26/06:00am 14.6 11.5 14.4 99 0.1 W 24 33 13 18 - - 16.4
26/05:30am 14.9 11.5 14.7 99 0.1 WSW 26 39 14 21 - - 16.4
26/05:00am 15.2 12.3 15.0 99 0.1 WSW 24 33 13 18 - - 16.4
26/04:30am 15.3 13.2 15.1 99 0.1 WSW 20 28 11 15 - - 16.4
26/04:00am 15.3 12.8 15.1 99 0.1 W 22 32 12 17 - - 16.4
26/03:30am 15.4 12.5 15.2 99 0.1 W 24 32 13 17 - - 16.4
26/03:00am 15.3 13.4 15.1 99 0.1 W 19 32 10 17 - - 16.4
26/02:30am 15.2 13.6 15.0 99 0.1 W 17 22 9 12 - - 16.4
26/02:00am 15.2 14.7 15.0 99 0.1 W 11 15 6 8 - - 16.4
26/01:30am 15.3 15.3 15.1 99 0.1 NW 9 15 5 8 - - 16.4
26/01:00am 15.2 15.7 14.9 98 0.2 W 6 9 3 5 - - 16.4
26/12:30am 15.3 16.2 15.0 98 0.2 NNW 4 9 2 5 - - 16.4
26/12:00am 15.4 15.4 15.1 98 0.2 ENE 9 13 5 7 - - 16.4
 
Date/Time
EDT
Temp
°C
App
Temp
°C
Dew
Point
Rel
Hum
%
Delta-T
°C
Wind Press
QNH
hPa
Press
MSL
hPa
Rain
since 9 am
mm
Dir
 
Spd
km/h
Gust
km/h
Spd
kts
Gust
kts
25/11:30pm 15.4 15.4 15.1 98 0.2 ENE 9 11 5 6 - - 16.4
25/11:00pm 15.2 15.0 14.7 97 0.3 ENE 9 15 5 8 - - 16.4
25/10:30pm 15.1 14.5 14.6 97 0.3 ENE 11 17 6 9 - - 16.4
25/10:00pm 15.4 15.3 14.9 97 0.3 ENE 9 13 5 7 - - 16.2
25/09:30pm 15.4 14.9 14.8 96 0.4 ENE 11 17 6 9 - - 16.2
25/09:00pm 15.7 15.7 15.1 96 0.4 ENE 9 15 5 8 - - 15.8
25/08:30pm 15.9 16.9 15.3 96 0.4 W 4 9 2 5 - - 11.4
25/08:00pm 16.1 16.6 15.5 96 0.4 E 7 17 4 9 - - 8.8
25/07:49pm 16.2 16.7 15.6 96 0.4 ENE 7 17 4 9 - - 8.2
25/07:30pm 16.4 17.6 15.8 96 0.4 E 4 9 2 5 - - 6.8
25/07:22pm 16.4 17.1 15.6 95 0.5 ENE 6 9 3 5 - - 6.2
25/07:00pm 16.1 17.2 15.5 96 0.4 WSW 4 9 2 5 - - 4.2
25/06:45pm 16.2 16.6 15.2 94 0.6 W 7 11 4 6 - - 3.4
25/06:30pm 16.7 16.7 15.2 91 0.9 WNW 9 19 5 10 - - 2.8
25/06:01pm 17.5 17.9 14.8 84 1.6 SSW 6 11 3 6 - - 1.6
25/06:00pm 17.5 17.7 14.6 83 1.8 SSW 7 11 4 6 - - 1.6
25/05:30pm 18.2 19.9 15.1 82 1.9 CALM 0 4 0 2 - - 1.0
25/05:00pm 18.2 19.7 15.6 85 1.6 NNW 2 6 1 3 - - 1.0
25/04:30pm 17.2 16.9 15.5 90 1.0 W 11 17 6 9 - - 1.0
25/04:00pm 16.2 14.8 14.6 90 1.0 SW 15 24 8 13 - - 1.0
25/03:30pm 18.4 16.9 14.1 76 2.6 NW 15 30 8 16 - - 0.4
25/03:00pm 22.6 23.3 16.2 67 4.1 NW 7 17 4 9 - - 0.2
25/02:30pm 24.9 26.4 17.6 64 4.8 ENE 6 11 3 6 - - 0.0
25/02:00pm 25.4 25.8 16.3 57 5.8 ENE 9 17 5 9 - - 0.0
25/01:30pm 28.1 28.7 15.7 46 8.0 NNW 7 13 4 7 - - 0.0
25/01:00pm 27.3 26.9 15.3 48 7.6 NW 11 19 6 10 - - 0.0
25/12:30pm 25.2 24.9 15.5 55 6.1 NW 11 20 6 11 - - 0.0
25/12:00pm 25.4 25.2 15.7 55 6.2 WNW 11 19 6 10 - - 0.0
25/11:30am 25.3 24.9 16.2 57 5.8 NW 13 22 7 12 - - 0.0
25/11:00am 23.8 23.6 16.8 65 4.5 WNW 13 20 7 11 - - 0.0
25/10:30am 22.9 22.9 17.1 70 3.7 WNW 13 20 7 11 - - 0.0
25/10:00am 22.0 22.4 17.2 74 3.1 WNW 11 17 6 9 - - 0.0
25/09:30am 20.8 20.9 16.4 76 2.8 W 11 19 6 10 - - 0.0
25/09:00am 19.7 19.6 16.0 79 2.3 WNW 11 19 6 10 - - 4.4
25/08:30am 18.5 18.3 15.6 83 1.8 W 11 22 6 12 - - 4.4
25/08:00am 17.6 16.4 15.0 85 1.6 WNW 15 22 8 12 - - 4.4
25/07:30am 16.9 15.1 14.5 86 1.4 W 17 28 9 15 - - 4.4
25/07:00am 17.0 15.3 14.8 87 1.3 NW 17 37 9 20 - - 4.4
25/06:30am 15.2 15.0 14.6 96 0.4 W 9 13 5 7 - - 4.4
25/06:00am 15.2 14.6 14.7 97 0.3 W 11 13 6 7 - - 4.4
25/05:30am 15.1 14.9 14.8 98 0.2 WNW 9 13 5 7 - - 4.2
25/05:17am 15.1 14.6 14.9 99 0.1 WNW 11 17 6 9 - - 4.2
25/05:00am 14.8 15.0 14.6 99 0.1 W 7 13 4 7 - - 4.2
25/04:30am 15.0 15.4 14.8 99 0.1 WNW 6 9 3 5 - - 4.2
25/04:22am 14.9 15.3 14.7 99 0.1 WNW 6 11 3 6 - - 4.2
25/04:00am 15.0 15.2 14.8 99 0.1 NW 7 13 4 7 - - 4.2
25/03:30am 15.3 15.6 15.1 99 0.1 NNW 7 11 4 6 - - 4.2
25/03:00am 15.5 14.8 15.3 99 0.1 ENE 13 22 7 12 - - 4.2
25/02:30am 15.6 15.7 15.4 99 0.1 ENE 9 17 5 9 - - 4.2
25/02:00am 15.7 16.2 15.5 99 0.1 NE 7 15 4 8 - - 4.2

Other Formats:

Comma delimited format used in spreadsheet applications
http://www.bom.gov.au/fwo/IDN60801/IDN60801.94743.axf

JavaScript Object Notation format (JSON) in row-major order
http://www.bom.gov.au/fwo/IDN60801/IDN60801.94743.json